KMHK/MHK METAR and TAF weather

Enter ICAO airport designator
Station Type Date Time Source
KMHK METAR 2022/06/28 13:52 UTC NOAA

KMHK 281352Z 18003KT 10SM CLR 20/14 A3026 RMK AO2 SLP239 T02000139


Station Type Date Time Source
KMHK Decoded METAR 2022/06/28 13:52 UTC NOAA

MANHATTAN REGIONAL AIRPORT, KS, United States (KMHK) 39-08N 96-41W 317M
Jun 28, 2022 - 09:52 AM EDT / 2022.06.28 1352 UTC
Wind: from the S (180 degrees) at 3 MPH (3 KT):0
Visibility: 10 mile(s):0
Sky conditions: clear
Temperature: 68.0 F (20.0 C)
Dew Point: 57.0 F (13.9 C)
Relative Humidity: 67%
Pressure (altimeter): 30.26 in. Hg (1024 hPa)
ob: KMHK 281352Z 18003KT 10SM CLR 20/14 A3026 RMK AO2 SLP239 T02000139
cycle: 14

Station Type Date Time Source
KMHK TAF 2022/06/28 12:22 UTC NOAA

TAF KMHK 281120Z 2812/2912 24003KT P6SM SKC
FM281800 22008KT P6SM SKC

Example: see airport list